sensor_id;sensor_type;location;lat;lon;timestamp;P1;durP1;ratioP1;P2;durP2;ratioP2
34489;SDS011;20730;49.372;7.324;2022-07-24T00:01:01;7.80;;;6.60;;
34489;SDS011;20730;49.372;7.324;2022-07-24T00:03:29;6.78;;;6.07;;
34489;SDS011;20730;49.372;7.324;2022-07-24T00:05:57;7.20;;;5.97;;
34489;SDS011;20730;49.372;7.324;2022-07-24T00:08:26;10.73;;;5.32;;
34489;SDS011;20730;49.372;7.324;2022-07-24T00:10:53;7.65;;;5.82;;
34489;SDS011;20730;49.372;7.324;2022-07-24T00:13:20;8.38;;;5.68;;
34489;SDS011;20730;49.372;7.324;2022-07-24T00:15:46;6.82;;;5.53;;
34489;SDS011;20730;49.372;7.324;2022-07-24T00:18:14;7.10;;;5.40;;
34489;SDS011;20730;49.372;7.324;2022-07-24T00:20:41;6.00;;;5.40;;
34489;SDS011;20730;49.372;7.324;2022-07-24T00:23:08;7.18;;;5.60;;
34489;SDS011;20730;49.372;7.324;2022-07-24T00:25:35;8.80;;;6.38;;
34489;SDS011;20730;49.372;7.324;2022-07-24T00:28:01;8.88;;;6.30;;
34489;SDS011;20730;49.372;7.324;2022-07-24T00:30:34;8.38;;;5.40;;
34489;SDS011;20730;49.372;7.324;2022-07-24T00:33:02;9.05;;;5.80;;
34489;SDS011;20730;49.372;7.324;2022-07-24T00:35:29;7.63;;;6.07;;
34489;SDS011;20730;49.372;7.324;2022-07-24T00:37:56;9.50;;;6.72;;
34489;SDS011;20730;49.372;7.324;2022-07-24T00:40:22;9.45;;;6.53;;
34489;SDS011;20730;49.372;7.324;2022-07-24T00:42:51;9.10;;;6.68;;
34489;SDS011;20730;49.372;7.324;2022-07-24T00:45:18;8.52;;;6.18;;
34489;SDS011;20730;49.372;7.324;2022-07-24T00:47:50;9.10;;;7.07;;
34489;SDS011;20730;49.372;7.324;2022-07-24T00:50:18;9.38;;;6.70;;
34489;SDS011;20730;49.372;7.324;2022-07-24T00:52:45;10.73;;;6.40;;
34489;SDS011;20730;49.372;7.324;2022-07-24T00:55:12;8.85;;;6.10;;
34489;SDS011;20730;49.372;7.324;2022-07-24T00:57:39;8.38;;;6.03;;
34489;SDS011;20730;49.372;7.324;2022-07-24T01:00:10;8.25;;;6.30;;
34489;SDS011;20730;49.372;7.324;2022-07-24T01:02:39;8.52;;;7.00;;
34489;SDS011;20730;49.372;7.324;2022-07-24T01:05:08;8.00;;;6.20;;
34489;SDS011;20730;49.372;7.324;2022-07-24T01:07:36;7.50;;;6.30;;
34489;SDS011;20730;49.372;7.324;2022-07-24T01:10:03;7.57;;;6.32;;
34489;SDS011;20730;49.372;7.324;2022-07-24T01:12:31;7.20;;;6.10;;
34489;SDS011;20730;49.372;7.324;2022-07-24T01:14:59;10.55;;;7.32;;
34489;SDS011;20730;49.372;7.324;2022-07-24T01:17:32;7.97;;;7.05;;
34489;SDS011;20730;49.372;7.324;2022-07-24T01:20:00;9.07;;;7.28;;
34489;SDS011;20730;49.372;7.324;2022-07-24T01:22:28;9.50;;;7.60;;
34489;SDS011;20730;49.372;7.324;2022-07-24T01:24:54;10.40;;;7.45;;
34489;SDS011;20730;49.372;7.324;2022-07-24T01:27:22;9.88;;;7.43;;
34489;SDS011;20730;49.372;7.324;2022-07-24T01:29:50;8.60;;;7.70;;
34489;SDS011;20730;49.372;7.324;2022-07-24T01:32:18;9.75;;;7.70;;
34489;SDS011;20730;49.372;7.324;2022-07-24T01:34:44;9.85;;;7.65;;
34489;SDS011;20730;49.372;7.324;2022-07-24T01:37:11;11.73;;;7.53;;
34489;SDS011;20730;49.372;7.324;2022-07-24T01:39:38;8.65;;;7.30;;
34489;SDS011;20730;49.372;7.324;2022-07-24T01:42:05;9.18;;;7.15;;
34489;SDS011;20730;49.372;7.324;2022-07-24T01:44:32;10.27;;;8.10;;
34489;SDS011;20730;49.372;7.324;2022-07-24T01:46:59;12.90;;;8.38;;
34489;SDS011;20730;49.372;7.324;2022-07-24T01:49:25;11.23;;;8.23;;
34489;SDS011;20730;49.372;7.324;2022-07-24T01:51:52;9.30;;;8.18;;
34489;SDS011;20730;49.372;7.324;2022-07-24T01:54:19;9.68;;;8.30;;
34489;SDS011;20730;49.372;7.324;2022-07-24T01:56:46;10.18;;;7.38;;
34489;SDS011;20730;49.372;7.324;2022-07-24T01:59:13;11.40;;;7.65;;
34489;SDS011;20730;49.372;7.324;2022-07-24T02:01:40;10.13;;;7.07;;
34489;SDS011;20730;49.372;7.324;2022-07-24T02:04:07;8.73;;;7.50;;
34489;SDS011;20730;49.372;7.324;2022-07-24T02:06:33;9.65;;;7.18;;
34489;SDS011;20730;49.372;7.324;2022-07-24T02:09:00;10.02;;;8.23;;
34489;SDS011;20730;49.372;7.324;2022-07-24T02:11:28;9.45;;;7.20;;
34489;SDS011;20730;49.372;7.324;2022-07-24T02:13:55;9.43;;;7.35;;
34489;SDS011;20730;49.372;7.324;2022-07-24T02:16:23;10.50;;;8.00;;
34489;SDS011;20730;49.372;7.324;2022-07-24T02:18:50;12.63;;;8.57;;
34489;SDS011;20730;49.372;7.324;2022-07-24T02:21:17;11.20;;;8.38;;
34489;SDS011;20730;49.372;7.324;2022-07-24T02:23:44;11.02;;;8.45;;
34489;SDS011;20730;49.372;7.324;2022-07-24T02:26:11;11.07;;;8.45;;
34489;SDS011;20730;49.372;7.324;2022-07-24T02:28:37;8.40;;;7.32;;
34489;SDS011;20730;49.372;7.324;2022-07-24T02:31:04;13.55;;;8.02;;
34489;SDS011;20730;49.372;7.324;2022-07-24T02:33:30;11.38;;;8.77;;
34489;SDS011;20730;49.372;7.324;2022-07-24T02:35:57;9.77;;;8.52;;
34489;SDS011;20730;49.372;7.324;2022-07-24T02:38:26;8.88;;;7.55;;
34489;SDS011;20730;49.372;7.324;2022-07-24T02:40:53;12.60;;;7.68;;
34489;SDS011;20730;49.372;7.324;2022-07-24T02:43:19;8.90;;;7.60;;
34489;SDS011;20730;49.372;7.324;2022-07-24T02:45:46;11.93;;;7.95;;
34489;SDS011;20730;49.372;7.324;2022-07-24T02:48:18;12.25;;;8.48;;
34489;SDS011;20730;49.372;7.324;2022-07-24T02:50:45;11.85;;;7.80;;
34489;SDS011;20730;49.372;7.324;2022-07-24T02:53:12;10.38;;;8.27;;
34489;SDS011;20730;49.372;7.324;2022-07-24T02:55:39;11.88;;;8.93;;
34489;SDS011;20730;49.372;7.324;2022-07-24T02:58:06;11.20;;;8.63;;
34489;SDS011;20730;49.372;7.324;2022-07-24T03:00:33;11.05;;;9.00;;
34489;SDS011;20730;49.372;7.324;2022-07-24T03:03:00;11.30;;;8.77;;
34489;SDS011;20730;49.372;7.324;2022-07-24T03:05:27;11.32;;;9.05;;
34489;SDS011;20730;49.372;7.324;2022-07-24T03:07:53;11.48;;;9.02;;
34489;SDS011;20730;49.372;7.324;2022-07-24T03:10:21;13.20;;;9.73;;
34489;SDS011;20730;49.372;7.324;2022-07-24T03:12:48;15.23;;;9.93;;
34489;SDS011;20730;49.372;7.324;2022-07-24T03:15:15;12.57;;;8.95;;
34489;SDS011;20730;49.372;7.324;2022-07-24T03:17:52;11.93;;;9.13;;
34489;SDS011;20730;49.372;7.324;2022-07-24T03:20:23;12.82;;;8.98;;
34489;SDS011;20730;49.372;7.324;2022-07-24T03:22:51;9.68;;;8.48;;
34489;SDS011;20730;49.372;7.324;2022-07-24T03:25:18;12.43;;;8.45;;
34489;SDS011;20730;49.372;7.324;2022-07-24T03:27:45;10.75;;;8.13;;
34489;SDS011;20730;49.372;7.324;2022-07-24T03:30:14;12.02;;;9.40;;
34489;SDS011;20730;49.372;7.324;2022-07-24T03:32:42;12.02;;;10.13;;
34489;SDS011;20730;49.372;7.324;2022-07-24T03:35:09;13.85;;;8.75;;
34489;SDS011;20730;49.372;7.324;2022-07-24T03:37:38;11.38;;;9.38;;
34489;SDS011;20730;49.372;7.324;2022-07-24T03:40:05;9.75;;;7.97;;
34489;SDS011;20730;49.372;7.324;2022-07-24T03:42:32;10.40;;;9.27;;
34489;SDS011;20730;49.372;7.324;2022-07-24T03:45:00;10.20;;;9.05;;
34489;SDS011;20730;49.372;7.324;2022-07-24T03:47:28;12.13;;;9.10;;
34489;SDS011;20730;49.372;7.324;2022-07-24T03:49:55;11.68;;;9.23;;
34489;SDS011;20730;49.372;7.324;2022-07-24T03:52:21;10.90;;;8.02;;
34489;SDS011;20730;49.372;7.324;2022-07-24T03:54:49;10.68;;;8.52;;
34489;SDS011;20730;49.372;7.324;2022-07-24T03:57:16;11.43;;;8.23;;
34489;SDS011;20730;49.372;7.324;2022-07-24T03:59:43;9.68;;;8.25;;
34489;SDS011;20730;49.372;7.324;2022-07-24T04:02:10;10.93;;;8.35;;
34489;SDS011;20730;49.372;7.324;2022-07-24T04:04:37;9.13;;;7.10;;
34489;SDS011;20730;49.372;7.324;2022-07-24T04:07:03;11.45;;;8.25;;
34489;SDS011;20730;49.372;7.324;2022-07-24T04:09:30;10.07;;;8.27;;
34489;SDS011;20730;49.372;7.324;2022-07-24T04:11:58;11.68;;;8.55;;
34489;SDS011;20730;49.372;7.324;2022-07-24T04:14:26;12.15;;;8.27;;
34489;SDS011;20730;49.372;7.324;2022-07-24T04:16:53;11.10;;;8.05;;
34489;SDS011;20730;49.372;7.324;2022-07-24T04:19:20;10.27;;;7.57;;
34489;SDS011;20730;49.372;7.324;2022-07-24T04:21:47;11.73;;;8.00;;
34489;SDS011;20730;49.372;7.324;2022-07-24T04:24:13;9.48;;;7.40;;
34489;SDS011;20730;49.372;7.324;2022-07-24T04:26:41;9.07;;;7.38;;
34489;SDS011;20730;49.372;7.324;2022-07-24T04:29:08;8.38;;;7.20;;
34489;SDS011;20730;49.372;7.324;2022-07-24T04:31:35;9.88;;;7.22;;
34489;SDS011;20730;49.372;7.324;2022-07-24T04:34:02;8.50;;;7.00;;
34489;SDS011;20730;49.372;7.324;2022-07-24T04:36:29;9.55;;;7.22;;
34489;SDS011;20730;49.372;7.324;2022-07-24T04:38:56;8.52;;;7.00;;
34489;SDS011;20730;49.372;7.324;2022-07-24T04:41:23;8.23;;;6.43;;
34489;SDS011;20730;49.372;7.324;2022-07-24T04:43:50;8.63;;;6.82;;
34489;SDS011;20730;49.372;7.324;2022-07-24T04:46:17;7.90;;;6.80;;
34489;SDS011;20730;49.372;7.324;2022-07-24T04:48:45;9.25;;;6.60;;
34489;SDS011;20730;49.372;7.324;2022-07-24T04:51:12;7.57;;;6.00;;
34489;SDS011;20730;49.372;7.324;2022-07-24T04:53:39;8.57;;;7.25;;
34489;SDS011;20730;49.372;7.324;2022-07-24T04:56:06;8.20;;;6.82;;
34489;SDS011;20730;49.372;7.324;2022-07-24T04:58:33;8.07;;;6.55;;
34489;SDS011;20730;49.372;7.324;2022-07-24T05:01:00;10.68;;;7.18;;
34489;SDS011;20730;49.372;7.324;2022-07-24T05:03:27;11.35;;;7.60;;
34489;SDS011;20730;49.372;7.324;2022-07-24T05:05:54;8.32;;;6.55;;
34489;SDS011;20730;49.372;7.324;2022-07-24T05:08:21;8.07;;;7.00;;
34489;SDS011;20730;49.372;7.324;2022-07-24T05:10:47;8.10;;;6.45;;
34489;SDS011;20730;49.372;7.324;2022-07-24T05:13:14;8.43;;;6.82;;
34489;SDS011;20730;49.372;7.324;2022-07-24T05:15:41;7.82;;;6.53;;
34489;SDS011;20730;49.372;7.324;2022-07-24T05:18:08;7.85;;;6.55;;
34489;SDS011;20730;49.372;7.324;2022-07-24T05:20:35;8.15;;;6.22;;
34489;SDS011;20730;49.372;7.324;2022-07-24T05:23:02;9.38;;;6.50;;
34489;SDS011;20730;49.372;7.324;2022-07-24T05:25:29;9.65;;;6.60;;
34489;SDS011;20730;49.372;7.324;2022-07-24T05:27:56;8.50;;;6.55;;
34489;SDS011;20730;49.372;7.324;2022-07-24T05:30:23;7.53;;;6.60;;
34489;SDS011;20730;49.372;7.324;2022-07-24T05:32:49;7.20;;;6.40;;
34489;SDS011;20730;49.372;7.324;2022-07-24T05:35:16;9.05;;;6.40;;
34489;SDS011;20730;49.372;7.324;2022-07-24T05:37:55;7.80;;;6.00;;
34489;SDS011;20730;49.372;7.324;2022-07-24T05:40:22;7.25;;;6.28;;
34489;SDS011;20730;49.372;7.324;2022-07-24T05:42:49;7.63;;;5.78;;
34489;SDS011;20730;49.372;7.324;2022-07-24T05:45:16;8.57;;;6.47;;
34489;SDS011;20730;49.372;7.324;2022-07-24T05:47:42;8.35;;;6.65;;
34489;SDS011;20730;49.372;7.324;2022-07-24T05:50:11;7.07;;;6.07;;
34489;SDS011;20730;49.372;7.324;2022-07-24T05:52:39;8.30;;;6.28;;
34489;SDS011;20730;49.372;7.324;2022-07-24T05:55:07;7.10;;;6.38;;
34489;SDS011;20730;49.372;7.324;2022-07-24T05:57:42;8.15;;;6.18;;
34489;SDS011;20730;49.372;7.324;2022-07-24T06:00:09;7.78;;;6.07;;
34489;SDS011;20730;49.372;7.324;2022-07-24T06:02:43;7.95;;;6.30;;
34489;SDS011;20730;49.372;7.324;2022-07-24T06:05:12;8.32;;;5.28;;
34489;SDS011;20730;49.372;7.324;2022-07-24T06:07:40;5.82;;;5.22;;
34489;SDS011;20730;49.372;7.324;2022-07-24T06:10:08;8.32;;;5.88;;
34489;SDS011;20730;49.372;7.324;2022-07-24T06:12:40;6.53;;;5.40;;
34489;SDS011;20730;49.372;7.324;2022-07-24T06:15:08;8.27;;;4.85;;
34489;SDS011;20730;49.372;7.324;2022-07-24T06:17:34;7.13;;;4.90;;
34489;SDS011;20730;49.372;7.324;2022-07-24T06:20:01;8.35;;;4.85;;
34489;SDS011;20730;49.372;7.324;2022-07-24T06:22:29;5.47;;;4.65;;
34489;SDS011;20730;49.372;7.324;2022-07-24T06:24:56;4.97;;;4.47;;
34489;SDS011;20730;49.372;7.324;2022-07-24T06:27:22;6.25;;;4.53;;
34489;SDS011;20730;49.372;7.324;2022-07-24T06:29:49;7.78;;;5.35;;
34489;SDS011;20730;49.372;7.324;2022-07-24T06:32:16;8.20;;;5.15;;
34489;SDS011;20730;49.372;7.324;2022-07-24T06:34:42;6.00;;;5.00;;
34489;SDS011;20730;49.372;7.324;2022-07-24T06:37:09;5.65;;;5.03;;
34489;SDS011;20730;49.372;7.324;2022-07-24T06:39:36;6.28;;;4.88;;
34489;SDS011;20730;49.372;7.324;2022-07-24T06:42:03;8.25;;;4.65;;
34489;SDS011;20730;49.372;7.324;2022-07-24T06:44:30;5.38;;;4.50;;
34489;SDS011;20730;49.372;7.324;2022-07-24T06:46:59;4.95;;;4.45;;
34489;SDS011;20730;49.372;7.324;2022-07-24T06:49:26;5.20;;;4.70;;
34489;SDS011;20730;49.372;7.324;2022-07-24T06:51:53;6.85;;;4.47;;
34489;SDS011;20730;49.372;7.324;2022-07-24T06:54:20;5.10;;;4.50;;
34489;SDS011;20730;49.372;7.324;2022-07-24T06:56:47;5.15;;;4.32;;
34489;SDS011;20730;49.372;7.324;2022-07-24T06:59:17;5.22;;;4.43;;
34489;SDS011;20730;49.372;7.324;2022-07-24T07:01:45;7.35;;;4.45;;
34489;SDS011;20730;49.372;7.324;2022-07-24T07:04:12;4.78;;;4.30;;
34489;SDS011;20730;49.372;7.324;2022-07-24T07:06:39;4.63;;;3.90;;
34489;SDS011;20730;49.372;7.324;2022-07-24T07:11:36;4.55;;;4.07;;
34489;SDS011;20730;49.372;7.324;2022-07-24T07:14:03;9.05;;;4.38;;
34489;SDS011;20730;49.372;7.324;2022-07-24T07:16:30;6.63;;;4.00;;
34489;SDS011;20730;49.372;7.324;2022-07-24T07:18:57;7.53;;;4.20;;
34489;SDS011;20730;49.372;7.324;2022-07-24T07:21:24;4.97;;;4.40;;
34489;SDS011;20730;49.372;7.324;2022-07-24T07:23:51;4.25;;;3.85;;
34489;SDS011;20730;49.372;7.324;2022-07-24T07:26:18;5.00;;;4.28;;
34489;SDS011;20730;49.372;7.324;2022-07-24T07:28:45;6.28;;;3.90;;
34489;SDS011;20730;49.372;7.324;2022-07-24T07:31:13;4.43;;;3.80;;
34489;SDS011;20730;49.372;7.324;2022-07-24T07:33:39;5.72;;;4.35;;
34489;SDS011;20730;49.372;7.324;2022-07-24T07:36:06;9.88;;;4.40;;
34489;SDS011;20730;49.372;7.324;2022-07-24T07:38:34;4.82;;;4.32;;
34489;SDS011;20730;49.372;7.324;2022-07-24T07:41:04;5.22;;;4.40;;
34489;SDS011;20730;49.372;7.324;2022-07-24T07:43:31;5.85;;;4.40;;
34489;SDS011;20730;49.372;7.324;2022-07-24T07:45:58;5.13;;;4.28;;
34489;SDS011;20730;49.372;7.324;2022-07-24T07:48:25;6.18;;;4.50;;
34489;SDS011;20730;49.372;7.324;2022-07-24T07:50:53;6.45;;;4.20;;
34489;SDS011;20730;49.372;7.324;2022-07-24T07:53:19;6.68;;;3.70;;
34489;SDS011;20730;49.372;7.324;2022-07-24T07:55:47;7.38;;;4.05;;
34489;SDS011;20730;49.372;7.324;2022-07-24T07:58:18;5.68;;;4.40;;
34489;SDS011;20730;49.372;7.324;2022-07-24T08:00:45;5.43;;;4.03;;
34489;SDS011;20730;49.372;7.324;2022-07-24T08:03:12;6.20;;;3.90;;
34489;SDS011;20730;49.372;7.324;2022-07-24T08:05:47;4.97;;;4.28;;
34489;SDS011;20730;49.372;7.324;2022-07-24T08:08:14;6.13;;;3.90;;
34489;SDS011;20730;49.372;7.324;2022-07-24T08:10:40;5.38;;;3.80;;
34489;SDS011;20730;49.372;7.324;2022-07-24T08:13:07;7.45;;;4.10;;
34489;SDS011;20730;49.372;7.324;2022-07-24T08:15:34;5.55;;;3.92;;
34489;SDS011;20730;49.372;7.324;2022-07-24T08:18:01;4.40;;;3.78;;
34489;SDS011;20730;49.372;7.324;2022-07-24T08:20:28;4.80;;;4.30;;
34489;SDS011;20730;49.372;7.324;2022-07-24T08:22:55;4.88;;;3.78;;
34489;SDS011;20730;49.372;7.324;2022-07-24T08:25:24;5.68;;;4.00;;
34489;SDS011;20730;49.372;7.324;2022-07-24T08:27:52;4.60;;;3.90;;
34489;SDS011;20730;49.372;7.324;2022-07-24T08:30:19;4.03;;;3.63;;
34489;SDS011;20730;49.372;7.324;2022-07-24T08:32:46;5.43;;;4.05;;
34489;SDS011;20730;49.372;7.324;2022-07-24T08:35:13;4.43;;;3.67;;
34489;SDS011;20730;49.372;7.324;2022-07-24T08:37:41;4.63;;;4.07;;
34489;SDS011;20730;49.372;7.324;2022-07-24T08:40:09;4.65;;;4.25;;
34489;SDS011;20730;49.372;7.324;2022-07-24T08:42:37;4.35;;;3.95;;
34489;SDS011;20730;49.372;7.324;2022-07-24T08:45:04;6.88;;;4.35;;
34489;SDS011;20730;49.372;7.324;2022-07-24T08:47:32;4.80;;;4.40;;
34489;SDS011;20730;49.372;7.324;2022-07-24T08:49:59;5.20;;;3.97;;
34489;SDS011;20730;49.372;7.324;2022-07-24T08:52:29;4.60;;;4.03;;
34489;SDS011;20730;49.372;7.324;2022-07-24T08:54:56;5.13;;;4.30;;
34489;SDS011;20730;49.372;7.324;2022-07-24T08:57:23;4.53;;;3.92;;
34489;SDS011;20730;49.372;7.324;2022-07-24T08:59:50;5.53;;;4.05;;
34489;SDS011;20730;49.372;7.324;2022-07-24T09:02:16;4.72;;;4.13;;
34489;SDS011;20730;49.372;7.324;2022-07-24T09:04:44;8.85;;;4.22;;
34489;SDS011;20730;49.372;7.324;2022-07-24T09:07:14;5.88;;;3.75;;
34489;SDS011;20730;49.372;7.324;2022-07-24T09:09:59;5.65;;;3.88;;
34489;SDS011;20730;49.372;7.324;2022-07-24T09:12:32;4.28;;;3.88;;
34489;SDS011;20730;49.372;7.324;2022-07-24T09:15:01;4.18;;;3.78;;
34489;SDS011;20730;49.372;7.324;2022-07-24T09:17:31;4.43;;;4.03;;
34489;SDS011;20730;49.372;7.324;2022-07-24T09:20:00;4.15;;;3.75;;
34489;SDS011;20730;49.372;7.324;2022-07-24T09:22:31;6.03;;;4.50;;
34489;SDS011;20730;49.372;7.324;2022-07-24T09:25:16;4.85;;;3.92;;
34489;SDS011;20730;49.372;7.324;2022-07-24T09:27:54;5.25;;;3.97;;
34489;SDS011;20730;49.372;7.324;2022-07-24T09:30:23;4.30;;;3.90;;
34489;SDS011;20730;49.372;7.324;2022-07-24T09:35:21;5.22;;;3.60;;
34489;SDS011;20730;49.372;7.324;2022-07-24T09:37:53;6.05;;;3.47;;
34489;SDS011;20730;49.372;7.324;2022-07-24T09:40:21;4.60;;;4.20;;
34489;SDS011;20730;49.372;7.324;2022-07-24T09:42:48;3.80;;;3.40;;
34489;SDS011;20730;49.372;7.324;2022-07-24T09:45:15;4.88;;;4.22;;
34489;SDS011;20730;49.372;7.324;2022-07-24T09:47:42;4.38;;;3.90;;
34489;SDS011;20730;49.372;7.324;2022-07-24T09:50:16;5.22;;;4.13;;
34489;SDS011;20730;49.372;7.324;2022-07-24T09:52:44;5.80;;;4.47;;
34489;SDS011;20730;49.372;7.324;2022-07-24T09:55:21;4.20;;;3.80;;
34489;SDS011;20730;49.372;7.324;2022-07-24T09:57:50;6.30;;;4.00;;
34489;SDS011;20730;49.372;7.324;2022-07-24T10:00:17;4.65;;;3.58;;
34489;SDS011;20730;49.372;7.324;2022-07-24T10:02:44;3.75;;;3.42;;
34489;SDS011;20730;49.372;7.324;2022-07-24T10:05:12;4.03;;;3.63;;
34489;SDS011;20730;49.372;7.324;2022-07-24T10:07:47;4.53;;;4.10;;
34489;SDS011;20730;49.372;7.324;2022-07-24T10:10:15;4.32;;;3.70;;
34489;SDS011;20730;49.372;7.324;2022-07-24T10:12:44;4.30;;;3.72;;
34489;SDS011;20730;49.372;7.324;2022-07-24T10:15:11;5.10;;;3.80;;
34489;SDS011;20730;49.372;7.324;2022-07-24T10:20:08;4.22;;;3.83;;
34489;SDS011;20730;49.372;7.324;2022-07-24T10:23:00;4.18;;;3.78;;
34489;SDS011;20730;49.372;7.324;2022-07-24T10:25:28;5.72;;;4.00;;
34489;SDS011;20730;49.372;7.324;2022-07-24T10:27:58;5.63;;;3.60;;
34489;SDS011;20730;49.372;7.324;2022-07-24T10:30:27;4.20;;;3.80;;
34489;SDS011;20730;49.372;7.324;2022-07-24T10:32:54;4.22;;;3.83;;
34489;SDS011;20730;49.372;7.324;2022-07-24T10:35:24;5.03;;;3.72;;
34489;SDS011;20730;49.372;7.324;2022-07-24T10:40:39;3.80;;;3.50;;
34489;SDS011;20730;49.372;7.324;2022-07-24T10:45:42;4.95;;;3.70;;
34489;SDS011;20730;49.372;7.324;2022-07-24T10:53:51;4.00;;;3.33;;
34489;SDS011;20730;49.372;7.324;2022-07-24T10:56:18;4.38;;;3.47;;
34489;SDS011;20730;49.372;7.324;2022-07-24T10:58:55;4.03;;;3.63;;
34489;SDS011;20730;49.372;7.324;2022-07-24T11:03:59;4.05;;;3.40;;
34489;SDS011;20730;49.372;7.324;2022-07-24T11:06:43;4.57;;;3.67;;
34489;SDS011;20730;49.372;7.324;2022-07-24T11:09:21;3.88;;;3.13;;
34489;SDS011;20730;49.372;7.324;2022-07-24T11:16:50;5.50;;;4.00;;
34489;SDS011;20730;49.372;7.324;2022-07-24T11:21:45;3.63;;;3.20;;
34489;SDS011;20730;49.372;7.324;2022-07-24T11:31:44;5.13;;;3.20;;
34489;SDS011;20730;49.372;7.324;2022-07-24T11:34:12;4.25;;;3.47;;
34489;SDS011;20730;49.372;7.324;2022-07-24T11:36:40;3.72;;;3.30;;
34489;SDS011;20730;49.372;7.324;2022-07-24T11:39:11;3.80;;;3.40;;
34489;SDS011;20730;49.372;7.324;2022-07-24T11:41:47;6.50;;;3.70;;
34489;SDS011;20730;49.372;7.324;2022-07-24T11:44:21;5.45;;;3.70;;
34489;SDS011;20730;49.372;7.324;2022-07-24T11:46:52;7.00;;;3.17;;
34489;SDS011;20730;49.372;7.324;2022-07-24T11:49:18;3.97;;;3.38;;
34489;SDS011;20730;49.372;7.324;2022-07-24T11:51:46;5.72;;;3.70;;
34489;SDS011;20730;49.372;7.324;2022-07-24T11:56:46;6.20;;;3.10;;
34489;SDS011;20730;49.372;7.324;2022-07-24T11:59:21;4.00;;;3.60;;
34489;SDS011;20730;49.372;7.324;2022-07-24T12:01:48;4.25;;;2.97;;
34489;SDS011;20730;49.372;7.324;2022-07-24T12:04:19;3.83;;;3.22;;
34489;SDS011;20730;49.372;7.324;2022-07-24T12:06:49;3.50;;;3.20;;
34489;SDS011;20730;49.372;7.324;2022-07-24T12:09:16;4.10;;;3.20;;
34489;SDS011;20730;49.372;7.324;2022-07-24T12:11:42;3.78;;;3.05;;
34489;SDS011;20730;49.372;7.324;2022-07-24T12:14:16;4.68;;;2.97;;
34489;SDS011;20730;49.372;7.324;2022-07-24T12:16:45;3.33;;;2.88;;
34489;SDS011;20730;49.372;7.324;2022-07-24T12:19:19;4.05;;;3.10;;
34489;SDS011;20730;49.372;7.324;2022-07-24T12:21:47;3.57;;;3.23;;
34489;SDS011;20730;49.372;7.324;2022-07-24T12:24:14;3.55;;;2.97;;
34489;SDS011;20730;49.372;7.324;2022-07-24T12:26:47;4.53;;;3.83;;
34489;SDS011;20730;49.372;7.324;2022-07-24T12:29:15;4.03;;;3.22;;
34489;SDS011;20730;49.372;7.324;2022-07-24T12:31:42;3.50;;;3.20;;
34489;SDS011;20730;49.372;7.324;2022-07-24T12:34:10;4.22;;;3.20;;
34489;SDS011;20730;49.372;7.324;2022-07-24T12:36:37;6.88;;;3.08;;
34489;SDS011;20730;49.372;7.324;2022-07-24T12:39:06;3.72;;;3.00;;
34489;SDS011;20730;49.372;7.324;2022-07-24T12:41:45;3.22;;;2.78;;
34489;SDS011;20730;49.372;7.324;2022-07-24T12:44:15;3.42;;;3.10;;
34489;SDS011;20730;49.372;7.324;2022-07-24T12:46:42;6.15;;;3.08;;
34489;SDS011;20730;49.372;7.324;2022-07-24T12:49:12;3.65;;;3.28;;
34489;SDS011;20730;49.372;7.324;2022-07-24T12:51:58;3.47;;;2.75;;
34489;SDS011;20730;49.372;7.324;2022-07-24T12:54:29;3.15;;;2.85;;
34489;SDS011;20730;49.372;7.324;2022-07-24T12:56:58;3.80;;;3.00;;
34489;SDS011;20730;49.372;7.324;2022-07-24T12:59:33;3.35;;;2.75;;
34489;SDS011;20730;49.372;7.324;2022-07-24T13:02:11;3.97;;;3.58;;
34489;SDS011;20730;49.372;7.324;2022-07-24T13:05:00;3.25;;;2.92;;
34489;SDS011;20730;49.372;7.324;2022-07-24T13:07:28;3.33;;;3.03;;
34489;SDS011;20730;49.372;7.324;2022-07-24T13:09:55;3.20;;;2.90;;
34489;SDS011;20730;49.372;7.324;2022-07-24T13:12:22;3.70;;;3.03;;
34489;SDS011;20730;49.372;7.324;2022-07-24T13:14:49;4.15;;;3.20;;
34489;SDS011;20730;49.372;7.324;2022-07-24T13:17:17;4.68;;;3.50;;
34489;SDS011;20730;49.372;7.324;2022-07-24T13:19:45;3.78;;;3.20;;
34489;SDS011;20730;49.372;7.324;2022-07-24T13:22:16;3.88;;;3.20;;
34489;SDS011;20730;49.372;7.324;2022-07-24T13:24:43;3.97;;;3.60;;
34489;SDS011;20730;49.372;7.324;2022-07-24T13:27:14;3.70;;;3.30;;
34489;SDS011;20730;49.372;7.324;2022-07-24T13:29:41;4.20;;;3.38;;
34489;SDS011;20730;49.372;7.324;2022-07-24T13:32:09;4.88;;;3.55;;
34489;SDS011;20730;49.372;7.324;2022-07-24T13:34:36;4.72;;;3.45;;
34489;SDS011;20730;49.372;7.324;2022-07-24T13:37:03;3.88;;;3.03;;
34489;SDS011;20730;49.372;7.324;2022-07-24T13:39:34;4.63;;;2.95;;
34489;SDS011;20730;49.372;7.324;2022-07-24T13:42:03;4.40;;;3.22;;
34489;SDS011;20730;49.372;7.324;2022-07-24T13:44:30;4.70;;;3.47;;
34489;SDS011;20730;49.372;7.324;2022-07-24T13:46:57;3.40;;;3.10;;
34489;SDS011;20730;49.372;7.324;2022-07-24T13:49:24;3.30;;;2.88;;
34489;SDS011;20730;49.372;7.324;2022-07-24T13:51:51;3.47;;;3.17;;
34489;SDS011;20730;49.372;7.324;2022-07-24T13:54:18;4.05;;;3.20;;
34489;SDS011;20730;49.372;7.324;2022-07-24T13:56:45;3.40;;;3.05;;
34489;SDS011;20730;49.372;7.324;2022-07-24T13:59:12;3.30;;;3.00;;
34489;SDS011;20730;49.372;7.324;2022-07-24T14:01:39;3.17;;;2.88;;
34489;SDS011;20730;49.372;7.324;2022-07-24T14:04:06;4.07;;;3.50;;
34489;SDS011;20730;49.372;7.324;2022-07-24T14:06:56;3.92;;;3.30;;
34489;SDS011;20730;49.372;7.324;2022-07-24T14:09:24;4.18;;;2.95;;
34489;SDS011;20730;49.372;7.324;2022-07-24T14:11:52;5.53;;;3.50;;
34489;SDS011;20730;49.372;7.324;2022-07-24T14:14:19;3.85;;;3.45;;
34489;SDS011;20730;49.372;7.324;2022-07-24T14:16:46;3.83;;;3.15;;
34489;SDS011;20730;49.372;7.324;2022-07-24T14:19:13;4.07;;;3.22;;
34489;SDS011;20730;49.372;7.324;2022-07-24T14:21:40;5.25;;;3.55;;
34489;SDS011;20730;49.372;7.324;2022-07-24T14:24:07;3.30;;;3.08;;
34489;SDS011;20730;49.372;7.324;2022-07-24T14:26:42;3.58;;;3.20;;
34489;SDS011;20730;49.372;7.324;2022-07-24T14:29:09;3.88;;;3.25;;
34489;SDS011;20730;49.372;7.324;2022-07-24T14:31:36;5.18;;;3.58;;
34489;SDS011;20730;49.372;7.324;2022-07-24T14:34:03;3.60;;;3.30;;
34489;SDS011;20730;49.372;7.324;2022-07-24T14:36:31;3.83;;;3.45;;
34489;SDS011;20730;49.372;7.324;2022-07-24T14:38:58;4.18;;;3.45;;
34489;SDS011;20730;49.372;7.324;2022-07-24T14:41:25;3.80;;;3.42;;
34489;SDS011;20730;49.372;7.324;2022-07-24T14:43:51;5.20;;;3.40;;
34489;SDS011;20730;49.372;7.324;2022-07-24T14:46:18;4.68;;;3.20;;
34489;SDS011;20730;49.372;7.324;2022-07-24T14:48:45;3.70;;;3.40;;
34489;SDS011;20730;49.372;7.324;2022-07-24T14:51:12;3.85;;;3.38;;
34489;SDS011;20730;49.372;7.324;2022-07-24T14:53:39;5.65;;;3.90;;
34489;SDS011;20730;49.372;7.324;2022-07-24T14:56:06;3.53;;;3.22;;
34489;SDS011;20730;49.372;7.324;2022-07-24T14:58:33;4.28;;;3.88;;
34489;SDS011;20730;49.372;7.324;2022-07-24T15:01:00;4.93;;;3.60;;
34489;SDS011;20730;49.372;7.324;2022-07-24T15:03:27;4.00;;;3.60;;
34489;SDS011;20730;49.372;7.324;2022-07-24T15:05:54;4.03;;;3.63;;
34489;SDS011;20730;49.372;7.324;2022-07-24T15:08:21;3.42;;;3.10;;
34489;SDS011;20730;49.372;7.324;2022-07-24T15:10:47;3.78;;;3.47;;
34489;SDS011;20730;49.372;7.324;2022-07-24T15:13:15;4.07;;;3.67;;
34489;SDS011;20730;49.372;7.324;2022-07-24T15:15:42;4.32;;;3.30;;
34489;SDS011;20730;49.372;7.324;2022-07-24T15:18:10;3.90;;;3.60;;
34489;SDS011;20730;49.372;7.324;2022-07-24T15:20:36;3.97;;;3.60;;
34489;SDS011;20730;49.372;7.324;2022-07-24T15:23:04;4.68;;;3.78;;
34489;SDS011;20730;49.372;7.324;2022-07-24T15:25:30;3.70;;;3.40;;
34489;SDS011;20730;49.372;7.324;2022-07-24T15:27:57;7.22;;;4.13;;
34489;SDS011;20730;49.372;7.324;2022-07-24T15:30:24;3.85;;;3.47;;